createdAt,value
2016-11-12T00:00:09.039Z,0
2016-11-12T00:01:08.700Z,0
2016-11-12T00:02:08.985Z,0
2016-11-12T00:03:08.646Z,0
2016-11-12T00:04:08.624Z,0
2016-11-12T00:05:08.607Z,0
2016-11-12T00:06:08.572Z,0
2016-11-12T00:07:08.557Z,0
2016-11-12T00:08:08.527Z,0
2016-11-12T00:09:08.509Z,0
2016-11-12T00:10:08.811Z,0
2016-11-12T00:11:08.455Z,0
2016-11-12T00:12:08.436Z,0
2016-11-12T00:13:08.412Z,0
2016-11-12T00:14:08.440Z,0
2016-11-12T00:15:08.370Z,0
2016-11-12T00:16:08.344Z,0
2016-11-12T00:17:08.321Z,0
2016-11-12T00:18:08.296Z,0
2016-11-12T00:19:08.269Z,0
2016-11-12T00:20:08.564Z,0
2016-11-12T00:21:08.226Z,0
2016-11-12T00:22:08.207Z,0
2016-11-12T00:23:08.177Z,0
2016-11-12T00:24:08.161Z,0
2016-11-12T00:25:08.450Z,0
2016-11-12T00:26:08.108Z,0
2016-11-12T00:27:08.083Z,0
2016-11-12T00:28:08.056Z,0
2016-11-12T00:29:08.039Z,0
2016-11-12T00:30:08.011Z,0
2016-11-12T00:31:07.992Z,0
2016-11-12T00:32:07.964Z,0
2016-11-12T00:33:07.945Z,0
2016-11-12T00:34:07.926Z,0
2016-11-12T00:35:07.889Z,0
2016-11-12T00:36:07.876Z,0
2016-11-12T00:37:08.161Z,0
2016-11-12T00:38:07.828Z,0
2016-11-12T00:39:08.115Z,0
2016-11-12T00:40:07.778Z,0
2016-11-12T00:41:07.805Z,0
2016-11-12T00:42:07.726Z,0
2016-11-12T00:43:07.761Z,0
2016-11-12T00:44:07.713Z,0
2016-11-12T00:45:07.658Z,0
2016-11-12T00:46:07.693Z,0
2016-11-12T00:47:07.608Z,0
2016-11-12T00:48:07.899Z,0
2016-11-12T00:49:07.563Z,0
2016-11-12T00:50:07.547Z,0
2016-11-12T00:51:08.143Z,0
2016-11-12T00:52:07.494Z,0
2016-11-12T00:53:07.470Z,0
2016-11-12T00:54:07.446Z,0
2016-11-12T00:55:07.427Z,0
2016-11-12T00:56:07.712Z,0
2016-11-12T00:57:07.381Z,0
2016-11-12T00:58:07.390Z,0
2016-11-12T00:59:07.331Z,0
2016-11-12T01:00:07.306Z,0
2016-11-12T01:01:07.283Z,0
2016-11-12T01:02:07.580Z,0
2016-11-12T01:03:07.240Z,0
2016-11-12T01:04:07.209Z,0
2016-11-12T01:05:07.183Z,0
2016-11-12T01:06:07.160Z,0
2016-11-12T01:07:07.172Z,0
2016-11-12T01:08:07.166Z,0
2016-11-12T01:09:07.097Z,0
2016-11-12T01:10:07.082Z,0
2016-11-12T01:11:07.360Z,0
2016-11-12T01:12:07.032Z,0
2016-11-12T01:13:06.999Z,0
2016-11-12T01:14:06.970Z,0
2016-11-12T01:15:07.269Z,0
2016-11-12T01:16:06.940Z,0
2016-11-12T01:17:06.907Z,0
2016-11-12T01:18:07.508Z,0
2016-11-12T01:19:07.167Z,0
2016-11-12T01:20:07.151Z,0
2016-11-12T01:21:06.806Z,0
2016-11-12T01:22:06.783Z,0
2016-11-12T01:23:06.761Z,0
2016-11-12T01:24:06.736Z,0
2016-11-12T01:25:06.726Z,0
2016-11-12T01:26:06.697Z,0
2016-11-12T01:27:06.673Z,0
2016-11-12T01:28:07.053Z,0
2016-11-12T01:29:06.622Z,0
2016-11-12T01:30:06.916Z,0
2016-11-12T01:31:06.573Z,0
2016-11-12T01:32:06.546Z,0
2016-11-12T01:33:06.524Z,0
2016-11-12T01:34:06.501Z,0
2016-11-12T01:35:06.484Z,0
2016-11-12T01:36:06.766Z,0
2016-11-12T01:37:06.738Z,0
2016-11-12T01:38:06.400Z,0
2016-11-12T01:39:06.380Z,0
2016-11-12T01:40:06.671Z,0
2016-11-12T01:41:06.366Z,0
2016-11-12T01:42:06.623Z,0
2016-11-12T01:43:06.339Z,0
2016-11-12T01:44:06.268Z,0
2016-11-12T01:45:06.238Z,0
2016-11-12T01:46:06.265Z,0
2016-11-12T01:47:06.505Z,0
2016-11-12T01:48:06.176Z,0
2016-11-12T01:49:06.458Z,0
2016-11-12T01:50:06.130Z,0
2016-11-12T01:51:06.097Z,0
2016-11-12T01:52:06.077Z,0
2016-11-12T01:53:06.051Z,0
2016-11-12T01:54:06.057Z,0
2016-11-12T01:55:06.000Z,0
2016-11-12T01:56:05.984Z,0
2016-11-12T01:57:05.993Z,0
2016-11-12T01:58:06.252Z,0
2016-11-12T01:59:05.904Z,0
2016-11-12T02:00:06.197Z,0
2016-11-12T02:01:06.174Z,0
2016-11-12T02:02:05.838Z,0
2016-11-12T02:03:06.124Z,0
2016-11-12T02:04:05.789Z,0
2016-11-12T02:05:05.770Z,0
2016-11-12T02:06:05.745Z,0
2016-11-12T02:07:06.045Z,0
2016-11-12T02:08:05.701Z,0
2016-11-12T02:09:05.684Z,0
2016-11-12T02:10:05.649Z,0
2016-11-12T02:11:05.672Z,0
2016-11-12T02:12:05.603Z,0
2016-11-12T02:13:05.574Z,0
2016-11-12T02:14:05.551Z,0
2016-11-12T02:15:05.846Z,0
2016-11-12T02:16:05.506Z,0
2016-11-12T02:17:05.474Z,0
2016-11-12T02:18:05.458Z,0
2016-11-12T02:19:05.440Z,0
2016-11-12T02:20:05.415Z,0
2016-11-12T02:21:05.388Z,0
2016-11-12T02:22:05.382Z,0
2016-11-12T02:23:05.340Z,0
2016-11-12T02:24:05.313Z,0
2016-11-12T02:25:05.294Z,0
2016-11-12T02:26:05.301Z,0
2016-11-12T02:27:05.249Z,0
2016-11-12T02:28:05.222Z,0
2016-11-12T02:29:05.204Z,0
2016-11-12T02:30:05.200Z,0
2016-11-12T02:31:05.160Z,0
2016-11-12T02:32:05.133Z,0
2016-11-12T02:33:05.425Z,0
2016-11-12T02:34:05.080Z,0
2016-11-12T02:35:05.062Z,0
2016-11-12T02:36:05.398Z,0
2016-11-12T02:37:05.333Z,0
2016-11-12T02:38:04.986Z,0
2016-11-12T02:39:04.964Z,0
2016-11-12T02:40:04.986Z,0
2016-11-12T02:41:05.233Z,0
2016-11-12T02:42:04.894Z,0
2016-11-12T02:43:04.870Z,0
2016-11-12T02:44:05.199Z,0
2016-11-12T02:45:05.132Z,0
2016-11-12T02:46:04.801Z,0
2016-11-12T02:47:05.406Z,0
2016-11-12T02:48:04.749Z,0
2016-11-12T02:49:05.357Z,0
2016-11-12T02:50:04.798Z,0
2016-11-12T02:51:04.681Z,0
2016-11-12T02:52:04.660Z,0
2016-11-12T02:53:04.635Z,0
2016-11-12T02:54:04.925Z,0
2016-11-12T02:55:04.664Z,0
2016-11-12T02:56:04.559Z,0
2016-11-12T02:57:04.545Z,0
2016-11-12T02:58:04.520Z,0
2016-11-12T02:59:04.496Z,0
2016-11-12T03:00:04.468Z,0
2016-11-12T03:01:04.448Z,0
2016-11-12T03:02:04.477Z,0
2016-11-12T03:03:04.397Z,0
2016-11-12T03:04:04.379Z,0
2016-11-12T03:05:04.346Z,0
2016-11-12T03:06:04.322Z,0
2016-11-12T03:07:04.299Z,0
2016-11-12T03:08:04.280Z,0
2016-11-12T03:09:04.259Z,0
2016-11-12T03:10:04.550Z,0
2016-11-12T03:11:04.221Z,0
2016-11-12T03:12:04.593Z,0
2016-11-12T03:13:04.477Z,0
2016-11-12T03:14:04.767Z,0
2016-11-12T03:15:04.427Z,0
2016-11-12T03:16:04.091Z,0
2016-11-12T03:17:04.066Z,0
2016-11-12T03:18:04.050Z,0
2016-11-12T03:19:04.021Z,0
2016-11-12T03:20:04.033Z,0
2016-11-12T03:21:04.297Z,0
2016-11-12T03:22:04.255Z,0
2016-11-12T03:23:04.286Z,0
2016-11-12T03:24:03.902Z,0
2016-11-12T03:25:04.190Z,0
2016-11-12T03:26:03.857Z,0
2016-11-12T03:27:03.828Z,0
2016-11-12T03:28:03.814Z,0
2016-11-12T03:29:03.991Z,0
2016-11-12T03:30:03.763Z,0
2016-11-12T03:31:04.098Z,0
2016-11-12T03:32:03.746Z,0
2016-11-12T03:33:04.315Z,0
2016-11-12T03:34:03.666Z,0
2016-11-12T03:35:03.640Z,0
2016-11-12T03:36:03.617Z,0
2016-11-12T03:37:03.960Z,0
2016-11-12T03:38:03.880Z,0
2016-11-12T03:39:03.542Z,0
2016-11-12T03:40:03.843Z,0
2016-11-12T03:41:03.812Z,0
2016-11-12T03:42:03.475Z,0
2016-11-12T03:43:03.449Z,0
2016-11-12T03:44:03.742Z,0
2016-11-12T03:45:03.402Z,0
2016-11-12T03:46:03.690Z,0
2016-11-12T03:47:03.354Z,0
2016-11-12T03:48:03.347Z,0
2016-11-12T03:49:03.632Z,0
2016-11-12T03:50:03.294Z,0
2016-11-12T03:51:03.265Z,0
2016-11-12T03:52:03.552Z,0
2016-11-12T03:53:03.269Z,0
2016-11-12T03:54:03.190Z,0
2016-11-12T03:55:03.168Z,0
2016-11-12T03:56:03.141Z,0
2016-11-12T03:57:03.434Z,0
2016-11-12T03:58:03.106Z,0
2016-11-12T03:59:03.074Z,0
2016-11-12T04:00:03.076Z,0
2016-11-12T04:01:03.345Z,0
2016-11-12T04:02:03.002Z,0
2016-11-12T04:03:03.297Z,0
2016-11-12T04:04:02.956Z,0
2016-11-12T04:05:02.937Z,0
2016-11-12T04:06:02.904Z,0
2016-11-12T04:07:03.512Z,0
2016-11-12T04:08:02.863Z,0
2016-11-12T04:09:03.152Z,0
2016-11-12T04:10:02.808Z,0
2016-11-12T04:11:03.115Z,0
2016-11-12T04:12:02.782Z,0
2016-11-12T04:13:02.745Z,0
2016-11-12T04:14:02.716Z,0
2016-11-12T04:15:02.700Z,0
2016-11-12T04:16:02.667Z,0
2016-11-12T04:17:03.007Z,0
2016-11-12T04:18:02.619Z,0
2016-11-12T04:19:02.600Z,0
2016-11-12T04:20:02.574Z,0
2016-11-12T04:21:02.552Z,0
2016-11-12T04:22:02.531Z,0
2016-11-12T04:23:02.816Z,0
2016-11-12T04:24:02.517Z,0
2016-11-12T04:25:02.456Z,0
2016-11-12T04:26:02.744Z,0
2016-11-12T04:27:02.410Z,0
2016-11-12T04:28:02.380Z,0
2016-11-12T04:29:02.362Z,0
2016-11-12T04:30:02.336Z,0
2016-11-12T04:31:02.313Z,0
2016-11-12T04:32:02.289Z,0
2016-11-12T04:33:02.265Z,0
2016-11-12T04:34:02.557Z,0
2016-11-12T04:35:02.223Z,0
2016-11-12T04:36:02.195Z,0
2016-11-12T04:37:02.170Z,0
2016-11-12T04:38:02.188Z,0
2016-11-12T04:39:02.118Z,0
2016-11-12T04:40:02.103Z,0
2016-11-12T04:41:02.440Z,0
2016-11-12T04:42:02.048Z,0
2016-11-12T04:43:02.043Z,0
2016-11-12T04:44:02.352Z,0
2016-11-12T04:45:01.981Z,0
2016-11-12T04:46:01.956Z,0
2016-11-12T04:47:01.938Z,0
2016-11-12T04:48:01.911Z,0
2016-11-12T04:49:02.540Z,0
2016-11-12T04:50:01.858Z,0
2016-11-12T04:51:02.149Z,0
2016-11-12T04:52:01.815Z,0
2016-11-12T04:53:01.794Z,0
2016-11-12T04:54:01.766Z,0
2016-11-12T04:55:01.743Z,0
2016-11-12T04:56:01.724Z,0
2016-11-12T04:57:01.695Z,0
2016-11-12T04:58:02.026Z,0
2016-11-12T04:59:01.651Z,0
2016-11-12T05:00:01.622Z,0
2016-11-12T05:01:01.602Z,0
2016-11-12T05:02:01.576Z,0
2016-11-12T05:03:01.561Z,0
2016-11-12T05:04:01.532Z,0
2016-11-12T05:05:02.124Z,0
2016-11-12T05:06:01.482Z,0
2016-11-12T05:07:01.472Z,0
2016-11-12T05:08:01.452Z,0
2016-11-12T05:09:01.728Z,0
2016-11-12T05:10:01.392Z,0
2016-11-12T05:11:01.674Z,0
2016-11-12T05:12:01.341Z,0
2016-11-12T05:13:01.315Z,0
2016-11-12T05:14:01.603Z,0
2016-11-12T05:15:01.265Z,0
2016-11-12T05:16:01.583Z,0
2016-11-12T05:17:01.212Z,0
2016-11-12T05:18:01.190Z,0
2016-11-12T05:19:01.167Z,0
2016-11-12T05:20:01.147Z,0
2016-11-12T05:21:01.119Z,0
2016-11-12T05:22:01.092Z,0
2016-11-12T05:23:01.072Z,0
2016-11-12T05:24:01.041Z,0
2016-11-12T05:25:01.024Z,0
2016-11-12T05:26:00.998Z,0
2016-11-12T05:27:00.971Z,0
2016-11-12T05:28:00.952Z,0
2016-11-12T05:29:01.126Z,0
2016-11-12T05:30:00.909Z,0
2016-11-12T05:31:00.876Z,0
2016-11-12T05:32:00.883Z,0
2016-11-12T05:33:00.862Z,0
2016-11-12T05:34:00.815Z,0
2016-11-12T05:35:00.818Z,0
2016-11-12T05:36:00.792Z,0
2016-11-12T05:37:00.765Z,0
2016-11-12T05:38:01.020Z,0
2016-11-12T05:39:01.008Z,0
2016-11-12T05:40:00.658Z,0
2016-11-12T05:41:00.950Z,0
2016-11-12T05:42:00.622Z,0
2016-11-12T05:43:00.588Z,0
2016-11-12T05:44:00.942Z,0
2016-11-12T05:45:00.859Z,0
2016-11-12T05:46:00.865Z,0
2016-11-12T05:47:00.496Z,0
2016-11-12T05:48:00.480Z,0
2016-11-12T05:49:00.758Z,0
2016-11-12T05:50:00.433Z,0
2016-11-12T05:51:00.709Z,0
2016-11-12T05:52:00.376Z,0
2016-11-12T05:53:00.381Z,0
2016-11-12T05:54:00.328Z,0
2016-11-12T05:55:00.621Z,0
2016-11-12T05:56:00.596Z,0
2016-11-12T05:57:00.253Z,0
2016-11-12T05:58:00.561Z,0
2016-11-12T05:59:00.206Z,0
2016-11-12T06:00:00.185Z,0
2016-11-12T06:01:00.155Z,0
2016-11-12T06:02:00.168Z,0
2016-11-12T06:03:00.116Z,0
2016-11-12T06:04:00.084Z,0
2016-11-12T06:05:00.060Z,0
2016-11-12T06:06:00.032Z,0
2016-11-12T06:07:00.014Z,0
2016-11-12T06:07:59.986Z,0
2016-11-12T06:08:59.963Z,0
2016-11-12T06:09:59.941Z,0
2016-11-12T06:10:59.919Z,4
2016-11-12T06:12:00.207Z,4
2016-11-12T06:12:59.866Z,0
2016-11-12T06:13:59.855Z,4
2016-11-12T06:14:59.820Z,4
2016-11-12T06:15:59.837Z,4
2016-11-12T06:16:59.783Z,4
2016-11-12T06:17:59.745Z,8
2016-11-12T06:18:59.725Z,8
2016-11-12T06:19:59.703Z,12
2016-11-12T06:20:59.681Z,12
2016-11-12T06:21:59.648Z,12
2016-11-12T06:22:59.635Z,20
2016-11-12T06:23:59.602Z,16
2016-11-12T06:24:59.582Z,24
2016-11-12T06:25:59.557Z,24
2016-11-12T06:26:59.539Z,32
2016-11-12T06:27:59.833Z,40
2016-11-12T06:28:59.494Z,48
2016-11-12T06:29:59.462Z,60
2016-11-12T06:30:59.467Z,68
2016-11-12T06:31:59.722Z,76
2016-11-12T06:33:00.022Z,92
2016-11-12T06:33:59.364Z,104
2016-11-12T06:34:59.337Z,120
2016-11-12T06:35:59.312Z,136
2016-11-12T06:36:59.918Z,152
2016-11-12T06:37:59.577Z,180
2016-11-12T06:38:59.246Z,204
2016-11-12T06:39:59.560Z,232
2016-11-12T06:40:59.198Z,260
2016-11-12T06:41:59.171Z,284
2016-11-12T06:42:59.145Z,308
2016-11-12T06:43:59.130Z,332
2016-11-12T06:44:59.097Z,360
2016-11-12T06:45:59.076Z,384
2016-11-12T06:46:59.047Z,408
2016-11-12T06:47:59.051Z,436
2016-11-12T06:48:59.322Z,464
2016-11-12T06:49:58.980Z,484
2016-11-12T06:50:58.952Z,516
2016-11-12T06:51:58.928Z,536
2016-11-12T06:52:58.909Z,560
2016-11-12T06:53:58.886Z,588
2016-11-12T06:54:58.853Z,612
2016-11-12T06:55:59.175Z,636
2016-11-12T06:56:58.814Z,664
2016-11-12T06:57:59.117Z,688
2016-11-12T06:58:58.771Z,708
2016-11-12T06:59:58.744Z,728
2016-11-12T07:00:59.381Z,752
2016-11-12T07:01:58.700Z,780
2016-11-12T07:02:58.665Z,796
2016-11-12T07:03:58.646Z,820
2016-11-12T07:04:58.623Z,840
2016-11-12T07:05:58.597Z,864
2016-11-12T07:06:58.577Z,892
2016-11-12T07:07:58.547Z,924
2016-11-12T07:08:58.524Z,956
2016-11-12T07:09:58.499Z,992
2016-11-12T07:10:58.480Z,1028
2016-11-12T07:11:58.452Z,1072
2016-11-12T07:12:58.444Z,1108
2016-11-12T07:13:58.407Z,1152
2016-11-12T07:14:58.383Z,1180
2016-11-12T07:15:58.373Z,1208
2016-11-12T07:16:58.336Z,1240
2016-11-12T07:17:58.316Z,1276
2016-11-12T07:18:58.291Z,1320
2016-11-12T07:19:58.259Z,1356
2016-11-12T07:20:58.267Z,1392
2016-11-12T07:21:58.217Z,1416
2016-11-12T07:22:58.507Z,1436
2016-11-12T07:23:58.175Z,1456
2016-11-12T07:24:58.150Z,1484
2016-11-12T07:25:58.447Z,1524
2016-11-12T07:26:58.103Z,1568
2016-11-12T07:27:58.084Z,1600
2016-11-12T07:28:58.256Z,1616
2016-11-12T07:29:58.032Z,1608
2016-11-12T07:30:58.011Z,1584
2016-11-12T07:31:57.992Z,1564
2016-11-12T07:32:57.967Z,1548
2016-11-12T07:33:57.937Z,1576
2016-11-12T07:34:57.916Z,1600
2016-11-12T07:35:57.893Z,1616
2016-11-12T07:36:57.870Z,1600
2016-11-12T07:37:58.167Z,1620
2016-11-12T07:38:57.826Z,1624
2016-11-12T07:39:57.802Z,1668
2016-11-12T07:40:57.781Z,1684
2016-11-12T07:41:57.754Z,1656
2016-11-12T07:42:57.731Z,1632
2016-11-12T07:43:57.709Z,1644
2016-11-12T07:44:57.683Z,1616
2016-11-12T07:45:57.971Z,1608
2016-11-12T07:46:57.635Z,1636
2016-11-12T07:47:57.613Z,1720
2016-11-12T07:48:57.902Z,1852
2016-11-12T07:49:57.879Z,1800
2016-11-12T07:50:57.555Z,1824
2016-11-12T07:51:57.846Z,1880
2016-11-12T07:52:57.825Z,1880
2016-11-12T07:53:57.477Z,1928
2016-11-12T07:54:57.769Z,2024
2016-11-12T07:55:57.743Z,2088
2016-11-12T07:56:57.406Z,2104
2016-11-12T07:57:57.376Z,2128
2016-11-12T07:58:57.354Z,2184
2016-11-12T07:59:57.333Z,2228
2016-11-12T08:00:57.629Z,2288
2016-11-12T08:01:57.597Z,2340
2016-11-12T08:02:57.266Z,2372
2016-11-12T08:03:57.554Z,2420
2016-11-12T08:04:57.216Z,2488
2016-11-12T08:05:57.195Z,2500
2016-11-12T08:06:57.484Z,2584
2016-11-12T08:07:57.529Z,2676
2016-11-12T08:08:57.124Z,2692
2016-11-12T08:09:57.104Z,2980
2016-11-12T08:10:57.389Z,3040
2016-11-12T08:11:57.052Z,3124
2016-11-12T08:12:57.031Z,3152
2016-11-12T08:13:57.016Z,3164
2016-11-12T08:14:56.990Z,3172
2016-11-12T08:15:57.007Z,3208
2016-11-12T08:16:56.943Z,3240
2016-11-12T08:17:56.921Z,3340
2016-11-12T08:18:56.889Z,3416
2016-11-12T08:19:57.207Z,3472
2016-11-12T08:20:56.852Z,3540
2016-11-12T08:21:57.136Z,3604
2016-11-12T08:22:56.806Z,3660
2016-11-12T08:23:56.786Z,3736
2016-11-12T08:24:56.759Z,3496
2016-11-12T08:25:57.045Z,3504
2016-11-12T08:26:56.718Z,3604
2016-11-12T08:27:56.688Z,3792
2016-11-12T08:28:56.668Z,3956
2016-11-12T08:29:56.964Z,3980
2016-11-12T08:30:56.621Z,3964
2016-11-12T08:31:56.602Z,3972
2016-11-12T08:32:56.579Z,3972
2016-11-12T08:33:56.555Z,4012
2016-11-12T08:34:56.535Z,4112
2016-11-12T08:35:57.172Z,4172
2016-11-12T08:36:56.487Z,4204
2016-11-12T08:37:56.474Z,4192
2016-11-12T08:38:56.445Z,4268
2016-11-12T08:39:56.420Z,4356
2016-11-12T08:40:56.395Z,4404
2016-11-12T08:41:56.376Z,4520
2016-11-12T08:42:56.355Z,4620
2016-11-12T08:43:56.638Z,4704
2016-11-12T08:44:56.307Z,4804
2016-11-12T08:45:56.286Z,4824
2016-11-12T08:46:56.264Z,4800
2016-11-12T08:47:56.248Z,4808
2016-11-12T08:48:56.221Z,4736
2016-11-12T08:49:56.217Z,4664
2016-11-12T08:50:56.189Z,4580
2016-11-12T08:51:56.158Z,4456
2016-11-12T08:52:56.132Z,4360
2016-11-12T08:53:56.108Z,4260
2016-11-12T08:54:56.409Z,4176
2016-11-12T08:55:56.379Z,4092
2016-11-12T08:56:56.045Z,4076
2016-11-12T08:57:56.027Z,4020
2016-11-12T08:58:56.002Z,4040
2016-11-12T08:59:56.288Z,4132
2016-11-12T09:00:55.959Z,4176
2016-11-12T09:01:55.938Z,4232
2016-11-12T09:02:55.912Z,4244
2016-11-12T09:03:55.888Z,4328
2016-11-12T09:04:55.868Z,4524
2016-11-12T09:05:56.187Z,4776
2016-11-12T09:06:55.826Z,5172
2016-11-12T09:07:55.808Z,5448
2016-11-12T09:08:55.817Z,5448
2016-11-12T09:09:55.768Z,5376
2016-11-12T09:10:55.754Z,5304
2016-11-12T09:11:55.728Z,5256
2016-11-12T09:12:55.704Z,5280
2016-11-12T09:13:55.682Z,5284
2016-11-12T09:14:55.969Z,5596
2016-11-12T09:15:55.670Z,5392
2016-11-12T09:16:55.619Z,5428
2016-11-12T09:17:55.598Z,7120
2016-11-12T09:18:55.571Z,9436
2016-11-12T09:19:55.551Z,9168
2016-11-12T09:20:55.840Z,8588
2016-11-12T09:21:55.504Z,6024
2016-11-12T09:22:55.670Z,5732
2016-11-12T09:23:55.467Z,6696
2016-11-12T09:24:55.759Z,7096
2016-11-12T09:25:55.741Z,8460
2016-11-12T09:26:55.757Z,9024
2016-11-12T09:27:55.386Z,7576
2016-11-12T09:28:55.564Z,5744
2016-11-12T09:29:55.655Z,5716
2016-11-12T09:30:55.321Z,5720
2016-11-12T09:31:55.301Z,5684
2016-11-12T09:32:55.289Z,5560
2016-11-12T09:33:55.266Z,5604
2016-11-12T09:34:55.300Z,5592
2016-11-12T09:35:55.224Z,5684
2016-11-12T09:36:55.518Z,6188
2016-11-12T09:37:55.182Z,7388
2016-11-12T09:38:55.163Z,7680
2016-11-12T09:39:55.456Z,8112
2016-11-12T09:40:55.125Z,8364
2016-11-12T09:41:55.112Z,8004
2016-11-12T09:42:55.092Z,8696
2016-11-12T09:43:55.194Z,10308
2016-11-12T09:44:55.679Z,9912
2016-11-12T09:45:55.029Z,8708
2016-11-12T09:46:55.033Z,10020
2016-11-12T09:47:54.991Z,11944
2016-11-12T09:48:54.990Z,12828
2016-11-12T09:49:54.958Z,13312
2016-11-12T09:50:54.951Z,14844
2016-11-12T09:51:54.921Z,13808
2016-11-12T09:52:54.910Z,12788
2016-11-12T09:53:55.220Z,12796
2016-11-12T09:54:54.872Z,12444
2016-11-12T09:55:54.857Z,10652
2016-11-12T09:56:54.836Z,8604
2016-11-12T09:57:54.821Z,7652
2016-11-12T09:58:55.125Z,7804
2016-11-12T09:59:54.787Z,8720
2016-11-12T10:00:54.771Z,10752
2016-11-12T10:01:54.752Z,12556
2016-11-12T10:02:54.738Z,14708
2016-11-12T10:03:54.719Z,10328
2016-11-12T10:04:54.701Z,12596
2016-11-12T10:05:54.995Z,10996
2016-11-12T10:06:54.663Z,12960
2016-11-12T10:07:54.658Z,16192
2016-11-12T10:08:54.634Z,16576
2016-11-12T10:09:54.932Z,16256
2016-11-12T10:10:54.606Z,15288
2016-11-12T10:11:54.586Z,15724
2016-11-12T10:12:54.570Z,17184
2016-11-12T10:13:54.905Z,14984
2016-11-12T10:14:54.543Z,14592
2016-11-12T10:15:54.524Z,13192
2016-11-12T10:16:54.824Z,13208
2016-11-12T10:17:54.503Z,12320
2016-11-12T10:18:54.489Z,11848
2016-11-12T10:19:54.467Z,12504
2016-11-12T10:20:54.453Z,12948
2016-11-12T10:21:54.437Z,13340
2016-11-12T10:22:54.435Z,13532
2016-11-12T10:23:54.407Z,12664
2016-11-12T10:24:54.396Z,12528
2016-11-12T10:25:54.378Z,12016
2016-11-12T10:26:54.711Z,10928
2016-11-12T10:27:54.691Z,9748
2016-11-12T10:28:54.649Z,10840
2016-11-12T10:29:54.635Z,11536
2016-11-12T10:30:54.302Z,10480
2016-11-12T10:31:54.290Z,10676
2016-11-12T10:32:54.607Z,10524
2016-11-12T10:33:54.280Z,10788
2016-11-12T10:34:54.251Z,12312
2016-11-12T10:35:54.229Z,14252
2016-11-12T10:36:54.215Z,17824
2016-11-12T10:37:54.212Z,19776
2016-11-12T10:38:54.201Z,21312
2016-11-12T10:39:54.175Z,15580
2016-11-12T10:40:54.159Z,10648
2016-11-12T10:41:54.142Z,10980
2016-11-12T10:42:54.143Z,11772
2016-11-12T10:43:54.123Z,11964
2016-11-12T10:44:54.102Z,10676
2016-11-12T10:45:54.087Z,10984
2016-11-12T10:46:54.072Z,12768
2016-11-12T10:47:54.061Z,13780
2016-11-12T10:48:54.048Z,13928
2016-11-12T10:49:54.030Z,15144
2016-11-12T10:50:54.018Z,17376
2016-11-12T10:51:54.001Z,17148
2016-11-12T10:52:53.997Z,13552
2016-11-12T10:53:53.974Z,11664
2016-11-12T10:54:53.960Z,12532
2016-11-12T10:55:54.262Z,12056
2016-11-12T10:56:53.942Z,12140
2016-11-12T10:57:53.920Z,13856
2016-11-12T10:58:54.219Z,15584
2016-11-12T10:59:53.897Z,17312
2016-11-12T11:00:54.193Z,21536
2016-11-12T11:01:53.865Z,29600
2016-11-12T11:02:53.854Z,32288
2016-11-12T11:03:53.848Z,31488
2016-11-12T11:04:53.828Z,26912
2016-11-12T11:05:53.814Z,21376
2016-11-12T11:06:53.801Z,19552
2016-11-12T11:07:53.793Z,17536
2016-11-12T11:08:54.089Z,16896
2016-11-12T11:09:53.811Z,18368
2016-11-12T11:10:53.789Z,21856
2016-11-12T11:11:53.747Z,23648
2016-11-12T11:12:53.736Z,26432
2016-11-12T11:13:53.727Z,27584
2016-11-12T11:14:53.709Z,28704
2016-11-12T11:15:54.013Z,26912
2016-11-12T11:16:53.714Z,25152
2016-11-12T11:17:53.678Z,19040
2016-11-12T11:18:53.681Z,11132
2016-11-12T11:19:53.652Z,8816
2016-11-12T11:20:53.640Z,8752
2016-11-12T11:21:53.637Z,8732
2016-11-12T11:22:53.936Z,8832
2016-11-12T11:23:53.609Z,8836
2016-11-12T11:24:53.599Z,8652
2016-11-12T11:25:53.901Z,8480
2016-11-12T11:26:53.948Z,8320
2016-11-12T11:27:53.565Z,8328
2016-11-12T11:28:53.755Z,8520
2016-11-12T11:29:53.536Z,8928
2016-11-12T11:30:53.529Z,9112
2016-11-12T11:31:53.517Z,8836
2016-11-12T11:32:53.496Z,8784
2016-11-12T11:33:53.524Z,8792
2016-11-12T11:34:53.495Z,8872
2016-11-12T11:35:53.473Z,8952
2016-11-12T11:36:53.452Z,9300
2016-11-12T11:37:53.757Z,11064
2016-11-12T11:38:53.736Z,12592
2016-11-12T11:39:53.404Z,9488
2016-11-12T11:40:53.439Z,9624
2016-11-12T11:41:53.372Z,9832
2016-11-12T11:42:53.360Z,10668
2016-11-12T11:43:53.660Z,16060
2016-11-12T11:44:53.339Z,22048
2016-11-12T11:45:53.322Z,25408
2016-11-12T11:46:53.304Z,24800
2016-11-12T11:47:53.613Z,25120
2016-11-12T11:48:53.284Z,25696
2016-11-12T11:49:53.269Z,26272
2016-11-12T11:50:53.255Z,26720
2016-11-12T11:51:53.238Z,26880
2016-11-12T11:52:53.226Z,26144
2016-11-12T11:53:53.209Z,25696
2016-11-12T11:54:53.515Z,25280
2016-11-12T11:55:53.193Z,24768
2016-11-12T11:56:53.176Z,24384
2016-11-12T11:57:53.199Z,24128
2016-11-12T11:58:53.150Z,24128
2016-11-12T11:59:53.461Z,24320
2016-11-12T12:00:53.131Z,24544
2016-11-12T12:01:53.123Z,24704
2016-11-12T12:02:53.741Z,24576
2016-11-12T12:03:53.421Z,24768
2016-11-12T12:04:53.100Z,25088
2016-11-12T12:05:53.087Z,25408
2016-11-12T12:06:53.072Z,24896
2016-11-12T12:07:53.064Z,24800
2016-11-12T12:08:53.064Z,23712
2016-11-12T12:09:53.058Z,23584
2016-11-12T12:10:53.037Z,23872
2016-11-12T12:11:53.029Z,24384
2016-11-12T12:12:53.020Z,25408
2016-11-12T12:13:53.014Z,25312
2016-11-12T12:14:52.999Z,24768
2016-11-12T12:15:52.993Z,23264
2016-11-12T12:16:52.989Z,20256
2016-11-12T12:17:52.979Z,21024
2016-11-12T12:18:53.003Z,21248
2016-11-12T12:19:52.953Z,19584
2016-11-12T12:20:52.946Z,19840
2016-11-12T12:21:52.942Z,19936
2016-11-12T12:22:52.967Z,19776
2016-11-12T12:23:52.925Z,19872
2016-11-12T12:24:53.263Z,19360
2016-11-12T12:25:52.904Z,19488
2016-11-12T12:26:52.906Z,18816
2016-11-12T12:27:52.905Z,19456
2016-11-12T12:28:52.887Z,19424
2016-11-12T12:29:53.503Z,19744
2016-11-12T12:30:52.872Z,19840
2016-11-12T12:31:53.329Z,19424
2016-11-12T12:32:52.852Z,19584
2016-11-12T12:33:52.848Z,20416
2016-11-12T12:34:52.838Z,21344
2016-11-12T12:35:52.828Z,22176
2016-11-12T12:36:52.827Z,22720
2016-11-12T12:37:52.814Z,23328
2016-11-12T12:38:52.807Z,23392
2016-11-12T12:39:52.813Z,23072
2016-11-12T12:40:52.790Z,22912
2016-11-12T12:41:52.786Z,22624
2016-11-12T12:42:52.783Z,22784
2016-11-12T12:43:52.767Z,22784
2016-11-12T12:44:52.761Z,22272
2016-11-12T12:45:52.758Z,21696
2016-11-12T12:46:52.748Z,21440
2016-11-12T12:47:52.744Z,21856
2016-11-12T12:48:52.738Z,21600
2016-11-12T12:49:52.790Z,21184
2016-11-12T12:50:52.740Z,20384
2016-11-12T12:51:52.727Z,19840
2016-11-12T12:52:53.029Z,18752
2016-11-12T12:53:52.709Z,18432
2016-11-12T12:54:52.697Z,18624
2016-11-12T12:55:52.689Z,18976
2016-11-12T12:56:52.686Z,19616
2016-11-12T12:57:52.676Z,19296
2016-11-12T12:58:52.667Z,18592
2016-11-12T12:59:52.662Z,17792
2016-11-12T13:00:52.651Z,17280
2016-11-12T13:01:52.661Z,17216
2016-11-12T13:02:52.643Z,17888
2016-11-12T13:03:52.663Z,18432
2016-11-12T13:04:52.626Z,19104
2016-11-12T13:05:52.935Z,19936
2016-11-12T13:06:52.618Z,20032
2016-11-12T13:07:52.614Z,20448
2016-11-12T13:08:52.601Z,20256
2016-11-12T13:09:52.902Z,20064
2016-11-12T13:10:52.589Z,19904
2016-11-12T13:11:52.578Z,20160
2016-11-12T13:12:52.572Z,21120
2016-11-12T13:13:52.567Z,22048
2016-11-12T13:14:52.591Z,22944
2016-11-12T13:15:52.864Z,23360
2016-11-12T13:16:52.565Z,21984
2016-11-12T13:17:52.537Z,21312
2016-11-12T13:18:52.525Z,20544
2016-11-12T13:19:52.524Z,20480
2016-11-12T13:20:52.515Z,20320
2016-11-12T13:21:52.511Z,20352
2016-11-12T13:22:52.501Z,20480
2016-11-12T13:23:52.522Z,20736
2016-11-12T13:24:52.802Z,20320
2016-11-12T13:25:52.796Z,19392
2016-11-12T13:26:52.792Z,18752
2016-11-12T13:27:52.472Z,18464
2016-11-12T13:28:52.668Z,18432
2016-11-12T13:29:52.772Z,18112
2016-11-12T13:30:52.454Z,17696
2016-11-12T13:31:52.760Z,17280
2016-11-12T13:32:52.747Z,16480
2016-11-12T13:33:52.425Z,14056
2016-11-12T13:34:52.427Z,12660
2016-11-12T13:35:52.420Z,11528
2016-11-12T13:36:52.408Z,10568
2016-11-12T13:37:52.418Z,9608
2016-11-12T13:38:52.398Z,9664
2016-11-12T13:39:52.424Z,10976
2016-11-12T13:40:52.378Z,10588
2016-11-12T13:41:52.379Z,9564
2016-11-12T13:42:52.987Z,7852
2016-11-12T13:43:52.355Z,7628
2016-11-12T13:44:52.663Z,7460
2016-11-12T13:45:52.656Z,7820
2016-11-12T13:46:52.329Z,8408
2016-11-12T13:47:52.329Z,8516
2016-11-12T13:48:52.314Z,8848
2016-11-12T13:49:52.303Z,9812
2016-11-12T13:50:52.295Z,11156